Time;durP1;ratioP1;P1;durP2;ratioP2;P2;SDS_P1;SDS_P2;PMS_P1;PMS_P2;Temp;Humidity;BMP_temperature;BMP_pressure;BME280_temperature;BME280_humidity;BME280_pressure;Samples;Min_cycle;Max_cycle;Signal;HPM_P1;HPM_P2
2021/10/08 00:00:54;;;;;;;40.08;17.25;;;;;;;7.13;100.00;102978.84;5225136;28;20029;-74
2021/10/08 00:03:24;;;;;;;31.88;17.98;;;;;;;7.10;100.00;102981.72;5225676;28;20048;-75
2021/10/08 00:05:55;;;;;;;26.92;13.48;;;;;;;7.10;100.00;102984.38;5225641;28;20021;-75
2021/10/08 00:08:25;;;;;;;36.10;18.30;;;;;;;7.12;100.00;102980.66;5225189;28;20499;-76
2021/10/08 00:10:56;;;;;;;48.13;19.95;;;;;;;7.13;100.00;102986.84;5225601;28;20051;-76
2021/10/08 00:13:26;;;;;;;92.35;19.05;;;;;;;7.09;100.00;102982.66;5224999;28;20049;-76
2021/10/08 00:15:57;;;;;;;46.92;15.98;;;;;;;7.02;100.00;102987.50;5225206;28;20033;-74
2021/10/08 00:18:27;;;;;;;38.28;17.52;;;;;;;6.97;100.00;102986.91;5225540;28;20075;-74
2021/10/08 00:20:58;;;;;;;35.40;16.33;;;;;;;6.93;100.00;102988.06;5224706;28;20029;-74
2021/10/08 00:23:29;;;;;;;36.20;15.98;;;;;;;6.94;100.00;102987.97;5225232;28;20055;-74
2021/10/08 00:26:00;;;;;;;29.88;15.00;;;;;;;6.96;100.00;102988.72;5225273;28;20025;-75
2021/10/08 00:28:30;;;;;;;38.40;16.23;;;;;;;6.95;100.00;102992.34;5225470;28;20029;-75
2021/10/08 00:31:01;;;;;;;27.83;15.27;;;;;;;6.90;100.00;102985.56;5224976;28;20051;-75
2021/10/08 00:33:32;;;;;;;25.85;14.18;;;;;;;6.85;100.00;102990.31;5224914;28;20028;-74
2021/10/08 00:36:02;;;;;;;33.00;16.10;;;;;;;6.79;100.00;102991.53;5224794;28;20028;-76
2021/10/08 00:38:33;;;;;;;28.20;15.45;;;;;;;6.73;100.00;102987.41;5224651;28;20036;-75
2021/10/08 00:41:06;;;;;;;29.17;16.17;;;;;;;6.70;100.00;102979.56;5224623;28;20468;-77
2021/10/08 00:43:36;;;;;;;31.17;14.73;;;;;;;6.67;100.00;102987.75;5225026;28;20108;-76
2021/10/08 00:46:07;;;;;;;31.25;14.73;;;;;;;6.66;100.00;102991.38;5225393;28;20152;-75
2021/10/08 00:48:37;;;;;;;30.40;15.32;;;;;;;6.66;100.00;102993.19;5224623;28;20067;-75
2021/10/08 00:51:08;;;;;;;26.25;13.95;;;;;;;6.62;100.00;102992.47;5224345;28;20139;-75
2021/10/08 00:53:38;;;;;;;35.10;15.00;;;;;;;6.58;100.00;102990.97;5224714;28;20029;-76
2021/10/08 00:56:09;;;;;;;31.27;14.75;;;;;;;6.53;100.00;102990.38;5224415;28;20025;-76
2021/10/08 00:58:42;;;;;;;36.90;16.35;;;;;;;6.50;100.00;102995.88;5224248;28;20044;-76
2021/10/08 01:01:16;;;;;;;51.65;19.83;;;;;;;6.49;100.00;102992.34;5224497;28;20407;-75
2021/10/08 01:03:46;;;;;;;31.73;16.67;;;;;;;6.52;100.00;102993.09;5224645;28;20052;-75
2021/10/08 01:06:29;;;;;;;26.70;14.27;;;;;;;6.55;100.00;102990.28;5224461;28;20086;-77
2021/10/08 01:08:59;;;;;;;35.90;18.40;;;;;;;6.58;100.00;102992.78;5224416;28;20025;-74
2021/10/08 01:11:30;;;;;;;28.67;15.23;;;;;;;6.55;100.00;102996.47;5224396;28;20025;-74
2021/10/08 01:14:03;;;;;;;35.30;16.00;;;;;;;6.51;100.00;102994.06;5224624;28;20059;-75
2021/10/08 01:16:33;;;;;;;166.60;19.58;;;;;;;6.44;100.00;102991.75;5224566;28;20066;-77
2021/10/08 01:19:04;;;;;;;135.18;16.17;;;;;;;6.40;100.00;102992.88;5224192;28;20440;-75
2021/10/08 01:21:35;;;;;;;120.68;15.07;;;;;;;6.33;100.00;102990.66;5224719;28;20171;-75
2021/10/08 01:24:06;;;;;;;81.63;18.98;;;;;;;6.30;100.00;102996.13;5225007;28;20047;-77
2021/10/08 01:26:36;;;;;;;32.45;14.65;;;;;;;6.26;100.00;102990.09;5223750;28;20017;-74
2021/10/08 01:29:10;;;;;;;32.05;14.80;;;;;;;6.26;100.00;102992.78;5223791;28;20073;-75
2021/10/08 01:31:42;;;;;;;33.45;14.73;;;;;;;6.33;100.00;102995.97;5224521;28;20025;-74
2021/10/08 01:34:12;;;;;;;44.42;19.25;;;;;;;6.36;100.00;102993.13;5224077;28;20476;-75
2021/10/08 01:36:43;;;;;;;45.05;19.60;;;;;;;6.37;100.00;102994.84;5223697;28;20100;-76
2021/10/08 01:39:14;;;;;;;46.17;21.10;;;;;;;6.31;100.00;102996.03;5222233;28;20104;-77
2021/10/08 01:41:44;;;;;;;52.60;21.95;;;;;;;6.24;100.00;102989.34;5223635;28;20028;-76
2021/10/08 01:44:15;;;;;;;55.97;21.17;;;;;;;6.19;100.00;102986.09;5223928;28;20035;-74
2021/10/08 01:46:48;;;;;;;45.35;18.08;;;;;;;6.14;100.00;102985.47;5223520;28;20111;-74
2021/10/08 01:49:19;;;;;;;47.50;15.27;;;;;;;6.11;100.00;102982.97;5223368;28;20021;-75
2021/10/08 01:51:50;;;;;;;38.35;16.85;;;;;;;6.08;100.00;102989.34;5223907;28;20028;-75
2021/10/08 01:54:21;;;;;;;42.33;17.90;;;;;;;6.05;100.00;102980.66;5222526;28;20478;-74
2021/10/08 01:56:52;;;;;;;95.10;23.85;;;;;;;6.04;100.00;102992.25;5223161;28;20021;-74
2021/10/08 01:59:23;;;;;;;60.00;21.88;;;;;;;6.03;100.00;102985.22;5222720;28;20021;-75
2021/10/08 02:01:57;;;;;;;110.13;22.60;;;;;;;6.02;100.00;102983.47;5223092;28;20394;-75
2021/10/08 02:04:27;;;;;;;44.88;19.77;;;;;;;6.02;100.00;102986.13;5223889;28;20025;-75
2021/10/08 02:07:00;;;;;;;41.45;19.92;;;;;;;6.01;100.00;102992.41;5223416;28;20379;-74
2021/10/08 02:09:42;;;;;;;37.55;18.33;;;;;;;5.95;100.00;102983.81;5223070;28;20021;-76
2021/10/08 02:12:12;;;;;;;48.38;20.65;;;;;;;5.93;100.00;102982.19;5223564;28;20033;-77
2021/10/08 02:14:43;;;;;;;46.17;20.92;;;;;;;5.88;100.00;102979.75;5223542;28;20023;-76
2021/10/08 02:17:15;;;;;;;54.13;22.02;;;;;;;5.88;100.00;102984.22;5223310;28;20021;-76
2021/10/08 02:19:45;;;;;;;45.58;18.98;;;;;;;5.86;100.00;102975.44;5222746;28;20024;-73
2021/10/08 02:22:16;;;;;;;40.63;17.63;;;;;;;5.81;100.00;102981.00;5223197;28;20040;-74
2021/10/08 02:24:46;;;;;;;55.15;21.92;;;;;;;5.78;100.00;102983.84;5222855;28;20029;-74
2021/10/08 02:27:17;;;;;;;50.60;15.65;;;;;;;5.76;100.00;102982.19;5223133;28;20100;-74
2021/10/08 02:29:47;;;;;;;30.98;15.23;;;;;;;5.71;100.00;102982.44;5222767;28;20398;-75
2021/10/08 02:32:18;;;;;;;100.10;24.02;;;;;;;5.68;100.00;102988.81;5222748;28;20440;-75
2021/10/08 02:34:48;;;;;;;65.47;23.85;;;;;;;5.70;100.00;102986.06;5222624;28;20024;-74
2021/10/08 02:37:19;;;;;;;82.75;29.48;;;;;;;5.77;100.00;102990.09;5222338;28;20024;-74
2021/10/08 02:39:49;;;;;;;92.70;26.95;;;;;;;5.82;100.00;102988.06;5222703;28;20032;-74
2021/10/08 02:42:20;;;;;;;89.82;28.23;;;;;;;5.85;100.00;102990.56;5222475;28;20528;-75
2021/10/08 02:44:50;;;;;;;116.22;30.50;;;;;;;5.92;100.00;102986.66;5222377;28;20081;-74
2021/10/08 02:47:21;;;;;;;137.35;33.75;;;;;;;5.97;100.00;102986.38;5222255;28;20021;-74
2021/10/08 02:49:51;;;;;;;116.07;35.25;;;;;;;6.03;100.00;102980.75;5222003;28;20032;-74
2021/10/08 02:52:22;;;;;;;107.13;34.58;;;;;;;6.09;100.00;102980.41;5222550;28;20028;-75
2021/10/08 02:54:52;;;;;;;81.47;26.55;;;;;;;6.14;100.00;102981.00;5222078;28;20047;-76
2021/10/08 02:57:23;;;;;;;114.93;33.60;;;;;;;6.18;100.00;102985.22;5222794;28;20025;-74
2021/10/08 02:59:53;;;;;;;151.15;38.30;;;;;;;6.22;100.00;102985.88;5222134;28;20025;-74
2021/10/08 03:02:24;;;;;;;114.20;36.03;;;;;;;6.23;100.00;102980.50;5220835;28;20028;-76
2021/10/08 03:04:55;;;;;;;101.22;33.55;;;;;;;6.25;100.00;102979.53;5222403;28;20107;-74
2021/10/08 03:07:26;;;;;;;122.10;36.78;;;;;;;6.25;100.00;102976.88;5222298;28;20077;-74
2021/10/08 03:09:57;;;;;;;111.22;35.53;;;;;;;6.26;100.00;102982.13;5222058;28;20021;-74
2021/10/08 03:12:27;;;;;;;182.30;41.08;;;;;;;6.26;100.00;102987.44;5221728;28;20363;-75
2021/10/08 03:14:58;;;;;;;126.53;37.40;;;;;;;6.26;100.00;102981.25;5222032;28;20028;-74
2021/10/08 03:17:29;;;;;;;142.55;40.03;;;;;;;6.26;100.00;102982.13;5221891;28;20029;-75
2021/10/08 03:19:59;;;;;;;119.53;41.20;;;;;;;6.25;100.00;102977.72;5222056;28;20025;-74
2021/10/08 03:22:30;;;;;;;123.70;38.25;;;;;;;6.25;100.00;102979.53;5221791;28;20021;-75
2021/10/08 03:25:01;;;;;;;113.63;37.63;;;;;;;6.26;100.00;102978.59;5221860;28;20059;-75
2021/10/08 03:27:32;;;;;;;111.70;36.75;;;;;;;6.25;100.00;102979.53;5221718;28;20033;-74
2021/10/08 03:30:06;;;;;;;88.05;36.42;;;;;;;6.25;100.00;102980.41;5221698;28;20066;-75
2021/10/08 03:32:37;;;;;;;103.88;35.58;;;;;;;6.25;100.00;102984.88;5221995;28;20044;-74
2021/10/08 03:35:08;;;;;;;139.50;39.13;;;;;;;6.25;100.00;102979.53;5222294;28;20470;-74
2021/10/08 03:40:12;;;;;;;107.47;38.38;;;;;;;6.29;100.00;102984.63;5222322;28;20059;-74
2021/10/08 03:42:43;;;;;;;137.40;37.97;;;;;;;6.32;100.00;102988.91;5221845;28;20078;-76
2021/10/08 03:45:15;;;;;;;107.88;37.42;;;;;;;6.32;100.00;102984.44;5221674;28;20020;-74
2021/10/08 03:48:03;;;;;;;116.32;36.17;;;;;;;6.33;100.00;102986.16;5221903;28;20021;-74
2021/10/08 03:50:34;;;;;;;200.85;39.85;;;;;;;6.34;100.00;102989.69;5221451;28;20050;-74
2021/10/08 03:53:05;;;;;;;150.45;36.67;;;;;;;6.33;100.00;102990.66;5221446;28;20060;-75
2021/10/08 03:55:36;;;;;;;122.82;37.10;;;;;;;6.34;100.00;102990.56;5221427;28;20028;-75
2021/10/08 03:58:07;;;;;;;110.38;39.25;;;;;;;6.35;100.00;102994.94;5221062;28;20028;-77
2021/10/08 04:00:37;;;;;;;104.00;35.33;;;;;;;6.43;100.00;102998.03;5220968;28;20070;-75
2021/10/08 04:03:08;;;;;;;116.50;38.72;;;;;;;6.46;100.00;102999.66;5221159;28;20033;-75
2021/10/08 04:05:38;;;;;;;220.55;42.15;;;;;;;6.49;100.00;102999.50;5221664;28;20017;-76
2021/10/08 04:08:09;;;;;;;202.52;39.88;;;;;;;6.51;100.00;102997.59;5221933;28;20078;-76
2021/10/08 04:10:40;;;;;;;172.90;38.55;;;;;;;6.53;100.00;103000.19;5221301;28;20032;-76
2021/10/08 04:13:11;;;;;;;175.55;38.30;;;;;;;6.54;100.00;102999.22;5221831;28;20028;-74
2021/10/08 04:15:41;;;;;;;115.72;35.55;;;;;;;6.53;100.00;102997.50;5221554;28;20025;-74
2021/10/08 04:18:11;;;;;;;135.93;36.00;;;;;;;6.53;100.00;102998.38;5221271;28;20470;-76
2021/10/08 04:20:42;;;;;;;145.63;35.28;;;;;;;6.54;100.00;103001.91;5221501;28;20040;-75
2021/10/08 04:23:13;;;;;;;147.20;35.78;;;;;;;6.53;100.00;103009.03;5224228;28;20085;-74
2021/10/08 04:25:45;;;;;;;215.45;39.55;;;;;;;6.53;100.00;103010.84;5225090;28;20033;-77
2021/10/08 04:28:15;;;;;;;174.35;36.92;;;;;;;6.53;100.00;103005.53;5225388;28;20067;-74
2021/10/08 04:30:46;;;;;;;124.47;35.00;;;;;;;6.52;100.00;103009.97;5225081;28;20028;-76
2021/10/08 04:33:19;;;;;;;112.78;37.53;;;;;;;6.52;100.00;103009.09;5225207;28;20115;-75
2021/10/08 04:35:50;;;;;;;167.88;47.20;;;;;;;6.52;100.00;103003.78;5224742;28;20052;-75
2021/10/08 04:38:20;;;;;;;244.55;62.17;;;;;;;6.52;100.00;103009.97;5224590;28;20076;-75
2021/10/08 04:40:51;;;;;;;314.27;62.70;;;;;;;6.50;100.00;103014.53;5224796;28;20021;-76
2021/10/08 04:43:21;;;;;;;168.20;53.28;;;;;;;6.49;100.00;103011.00;5224879;28;20063;-75
2021/10/08 04:45:52;;;;;;;258.40;45.92;;;;;;;6.48;100.00;103013.78;5224700;28;20025;-75
2021/10/08 04:48:22;;;;;;;103.63;37.45;;;;;;;6.45;100.00;103004.13;5224948;28;20029;-75
2021/10/08 04:50:55;;;;;;;228.77;39.80;;;;;;;6.44;100.00;103017.56;5224367;28;20025;-76
2021/10/08 04:53:26;;;;;;;115.85;36.10;;;;;;;6.41;100.00;103012.38;5224586;28;20107;-75
2021/10/08 04:55:56;;;;;;;239.38;38.85;;;;;;;6.37;100.00;103011.69;5224505;28;20096;-74
2021/10/08 04:58:27;;;;;;;225.82;34.30;;;;;;;6.33;100.00;103009.31;5225054;28;20045;-76
2021/10/08 05:00:57;;;;;;;118.70;34.10;;;;;;;6.29;100.00;103013.94;5224345;28;20021;-74
2021/10/08 05:03:28;;;;;;;152.48;35.05;;;;;;;6.29;100.00;103024.59;5224535;28;20493;-76
2021/10/08 05:05:58;;;;;;;159.80;34.88;;;;;;;6.29;100.00;103021.94;5224881;28;20033;-74
2021/10/08 05:08:29;;;;;;;223.45;35.85;;;;;;;6.26;100.00;103024.75;5224636;28;20017;-75
2021/10/08 05:10:59;;;;;;;122.55;34.80;;;;;;;6.25;100.00;103023.03;5224107;28;20051;-77
2021/10/08 05:13:30;;;;;;;101.82;30.23;;;;;;;6.24;100.00;103026.66;5224160;28;20021;-75
2021/10/08 05:16:01;;;;;;;84.78;32.47;;;;;;;6.20;100.00;103027.78;5224363;28;20112;-75
2021/10/08 05:18:31;;;;;;;171.10;35.50;;;;;;;6.18;100.00;103029.69;5224436;28;20551;-75
2021/10/08 05:21:02;;;;;;;122.85;34.58;;;;;;;6.15;100.00;103029.84;5224112;28;20037;-76
2021/10/08 05:23:34;;;;;;;120.95;32.95;;;;;;;6.12;100.00;103033.50;5224287;28;20025;-74
2021/10/08 05:26:05;;;;;;;204.93;36.03;;;;;;;6.08;100.00;103036.47;5223816;28;20036;-74
2021/10/08 05:28:35;;;;;;;144.18;33.30;;;;;;;6.04;100.00;103030.44;5223754;28;20079;-73
2021/10/08 05:31:06;;;;;;;119.70;30.73;;;;;;;6.01;100.00;103037.72;5223490;28;20127;-74
2021/10/08 05:33:36;;;;;;;137.70;32.13;;;;;;;5.94;100.00;103035.38;5223326;28;20017;-74
2021/10/08 05:36:07;;;;;;;149.50;31.52;;;;;;;5.93;100.00;103038.16;5223873;28;20029;-75
2021/10/08 05:38:37;;;;;;;123.50;32.38;;;;;;;5.91;100.00;103042.66;5223384;28;20091;-74
2021/10/08 05:41:08;;;;;;;98.63;32.08;;;;;;;5.90;100.00;103039.13;5223652;28;20057;-75
2021/10/08 05:43:38;;;;;;;189.65;35.72;;;;;;;5.91;100.00;103046.19;5223460;28;20025;-74
2021/10/08 05:46:09;;;;;;;135.25;34.35;;;;;;;5.91;100.00;103048.88;5223855;28;20051;-74
2021/10/08 05:48:39;;;;;;;172.52;33.67;;;;;;;5.90;100.00;103048.91;5223966;28;20020;-74
2021/10/08 05:51:10;;;;;;;99.10;33.65;;;;;;;5.90;100.00;103048.91;5223165;28;20036;-73
2021/10/08 05:53:40;;;;;;;138.73;35.10;;;;;;;5.90;100.00;103044.44;5223732;28;20523;-74
2021/10/08 05:56:11;;;;;;;110.85;33.45;;;;;;;5.90;100.00;103041.78;5223387;28;20039;-75
2021/10/08 05:58:41;;;;;;;100.00;30.85;;;;;;;5.91;100.00;103043.53;5222040;28;20029;-75
2021/10/08 06:01:11;;;;;;;137.07;33.47;;;;;;;5.91;100.00;103048.88;5223144;28;20059;-75
2021/10/08 06:03:42;;;;;;;112.45;34.58;;;;;;;5.90;100.00;103040.94;5222721;28;20161;-75
2021/10/08 06:06:13;;;;;;;108.50;31.65;;;;;;;5.91;100.00;103050.63;5223022;28;20017;-75
2021/10/08 06:08:43;;;;;;;142.55;33.63;;;;;;;5.92;100.00;103055.06;5223574;28;20076;-75
2021/10/08 06:11:14;;;;;;;136.65;33.30;;;;;;;5.91;100.00;103053.31;5222921;28;20111;-75
2021/10/08 06:13:45;;;;;;;150.20;32.53;;;;;;;5.90;100.00;103055.09;5223067;28;20503;-76
2021/10/08 06:16:15;;;;;;;106.28;33.22;;;;;;;5.91;100.00;103062.19;5222801;28;20025;-75
2021/10/08 06:18:46;;;;;;;207.32;37.25;;;;;;;5.95;100.00;103073.56;5222945;28;20029;-76
2021/10/08 06:21:16;;;;;;;228.23;35.78;;;;;;;6.00;100.00;103067.97;5222563;28;20346;-75
2021/10/08 06:23:47;;;;;;;119.30;32.72;;;;;;;6.01;100.00;103069.69;5221859;28;20524;-74
2021/10/08 06:26:17;;;;;;;175.63;32.95;;;;;;;6.04;100.00;103072.19;5222735;28;20063;-73
2021/10/08 06:28:48;;;;;;;202.25;34.92;;;;;;;6.08;100.00;103068.44;5222675;28;20017;-74
2021/10/08 06:31:18;;;;;;;128.77;32.72;;;;;;;6.11;100.00;103073.59;5222668;28;20032;-73
2021/10/08 06:33:49;;;;;;;168.73;34.67;;;;;;;6.15;100.00;103076.00;5222886;28;20456;-73
2021/10/08 06:36:19;;;;;;;179.02;34.05;;;;;;;6.21;100.00;103074.81;5222738;28;20418;-75
2021/10/08 06:38:50;;;;;;;132.48;34.20;;;;;;;6.27;100.00;103081.59;5222203;28;20041;-73
2021/10/08 06:41:20;;;;;;;76.15;32.40;;;;;;;6.35;100.00;103082.06;5222594;28;20021;-73
2021/10/08 06:43:51;;;;;;;167.85;35.22;;;;;;;6.43;100.00;103087.84;5223069;28;20655;-74
2021/10/08 06:46:21;;;;;;;187.43;34.90;;;;;;;6.45;100.00;103089.44;5222212;28;20402;-75
2021/10/08 06:48:52;;;;;;;234.25;34.70;;;;;;;6.48;100.00;103083.97;5222302;28;20430;-73
2021/10/08 06:51:22;;;;;;;227.88;33.35;;;;;;;6.49;100.00;103084.81;5222167;28;20111;-74
2021/10/08 06:53:53;;;;;;;144.75;30.45;;;;;;;6.53;100.00;103091.72;5222451;28;20029;-74
2021/10/08 06:56:23;;;;;;;280.60;35.58;;;;;;;6.58;100.00;103086.13;5221968;28;20024;-75
2021/10/08 06:58:54;;;;;;;299.10;37.42;;;;;;;6.58;100.00;103094.13;5216714;28;20120;-75
2021/10/08 07:01:24;;;;;;;146.07;32.88;;;;;;;6.62;100.00;103091.16;5219187;28;20021;-73
2021/10/08 07:03:55;;;;;;;77.60;32.72;;;;;;;6.70;100.00;103101.44;5219192;28;20033;-72
2021/10/08 07:06:25;;;;;;;133.20;35.75;;;;;;;6.77;100.00;103094.78;5219419;28;20028;-73
2021/10/08 07:08:56;;;;;;;309.90;38.20;;;;;;;6.79;100.00;103095.56;5219538;28;20025;-76
2021/10/08 07:11:27;;;;;;;161.55;31.98;;;;;;;6.81;100.00;103108.81;5219872;28;20025;-73
2021/10/08 07:13:57;;;;;;;293.15;35.60;;;;;;;6.82;100.00;103097.19;5219704;28;20029;-73
2021/10/08 07:16:28;;;;;;;113.18;29.52;;;;;;;6.86;100.00;103102.28;5217870;28;20032;-76
2021/10/08 07:19:07;;;;;;;162.35;34.13;;;;;;;6.97;100.00;103107.00;5219911;28;20032;-71
2021/10/08 07:21:39;;;;;;;173.38;34.72;;;;;;;7.09;100.00;103113.47;5206940;28;20036;-73
2021/10/08 07:24:10;;;;;;;108.50;32.88;;;;;;;7.17;100.00;103121.88;5219323;28;20021;-72
2021/10/08 07:26:41;;;;;;;152.05;32.90;;;;;;;7.26;100.00;103108.84;5218265;28;20024;-72
2021/10/08 07:29:11;;;;;;;236.30;38.45;;;;;;;7.33;100.00;103108.47;5218850;28;20043;-73
2021/10/08 07:31:42;;;;;;;277.45;36.58;;;;;;;7.40;100.00;103110.72;5219473;28;20033;-71
2021/10/08 07:34:13;;;;;;;111.95;31.40;;;;;;;7.45;100.00;103113.13;5217656;28;20020;-73
2021/10/08 07:36:43;;;;;;;250.45;34.53;;;;;;;7.54;100.00;103109.91;5218017;28;20108;-72
2021/10/08 07:39:14;;;;;;;168.55;31.08;;;;;;;7.60;100.00;103112.19;5219256;28;20098;-72
2021/10/08 07:41:45;;;;;;;204.25;33.17;;;;;;;7.66;100.00;103110.97;5234582;28;20016;-71
2021/10/08 07:44:16;;;;;;;154.15;31.77;;;;;;;7.68;100.00;103115.28;5219536;28;20091;-71
2021/10/08 07:46:46;;;;;;;261.80;35.25;;;;;;;7.73;100.00;103123.00;5219409;28;20028;-71
2021/10/08 07:49:17;;;;;;;131.13;31.85;;;;;;;7.76;100.00;103104.13;5219121;28;20025;-72
2021/10/08 07:51:48;;;;;;;217.45;30.50;;;;;;;7.76;100.00;103112.13;5218876;28;20013;-73
2021/10/08 07:54:18;;;;;;;168.43;31.45;;;;;;;7.89;100.00;103114.94;5219403;28;20486;-72
2021/10/08 07:56:49;;;;;;;132.30;29.10;;;;;;;7.89;100.00;103115.78;5219868;28;20079;-73
2021/10/08 07:59:19;;;;;;;170.57;28.92;;;;;;;7.91;100.00;103113.88;5223415;28;20025;-73
2021/10/08 08:01:50;;;;;;;176.60;29.85;;;;;;;7.99;100.00;103116.94;5222421;28;20104;-72
2021/10/08 08:04:20;;;;;;;169.50;30.45;;;;;;;8.09;100.00;103113.72;5222267;28;20701;-72
2021/10/08 08:06:51;;;;;;;113.15;28.08;;;;;;;8.19;100.00;103114.88;5223723;28;20021;-72
2021/10/08 08:09:21;;;;;;;230.45;32.58;;;;;;;8.27;100.00;103118.75;5223226;28;20098;-74
2021/10/08 08:11:52;;;;;;;114.47;28.50;;;;;;;8.32;100.00;103127.34;5223354;28;20028;-72
2021/10/08 08:14:22;;;;;;;110.15;29.67;;;;;;;8.47;100.00;103119.34;5222996;28;20104;-72
2021/10/08 08:16:53;;;;;;;177.38;32.58;;;;;;;8.66;100.00;103116.38;5222750;28;20028;-72
2021/10/08 08:19:23;;;;;;;152.95;30.33;;;;;;;8.78;100.00;103129.81;5221845;28;20118;-72
2021/10/08 08:21:54;;;;;;;122.53;28.27;;;;;;;8.88;100.00;103115.84;5222876;28;20033;-74
2021/10/08 08:24:24;;;;;;;149.40;28.85;;;;;;;8.95;100.00;103120.69;5222793;28;20020;-72
2021/10/08 08:26:55;;;;;;;124.75;27.52;;;;;;;9.03;100.00;103115.69;5223308;28;20036;-72
2021/10/08 08:29:26;;;;;;;83.82;28.98;;;;;;;9.21;100.00;103104.72;5222354;28;20090;-72
2021/10/08 08:31:56;;;;;;;165.77;28.60;;;;;;;9.37;100.00;103113.44;5222915;28;20135;-72
2021/10/08 08:34:27;;;;;;;156.30;30.50;;;;;;;9.46;100.00;103112.81;5222556;28;20028;-72
2021/10/08 08:36:58;;;;;;;64.25;28.02;;;;;;;9.51;100.00;103117.88;5221531;28;20021;-72
2021/10/08 08:39:28;;;;;;;66.93;27.27;;;;;;;9.65;100.00;103120.47;5222687;28;20035;-74
2021/10/08 08:41:59;;;;;;;139.55;30.30;;;;;;;9.51;100.00;103117.88;5222684;28;20024;-72
2021/10/08 08:44:29;;;;;;;104.65;30.80;;;;;;;9.62;100.00;103125.19;5223239;28;20477;-72
2021/10/08 08:47:00;;;;;;;100.07;27.75;;;;;;;9.56;100.00;103126.47;5223145;28;20063;-72
2021/10/08 08:49:31;;;;;;;77.53;27.95;;;;;;;9.57;100.00;103121.00;5222759;28;20527;-73
2021/10/08 08:52:02;;;;;;;60.83;26.50;;;;;;;9.62;100.00;103120.69;5223105;28;20421;-72
2021/10/08 08:54:34;;;;;;;70.18;26.35;;;;;;;9.59;100.00;103116.41;5220922;28;20036;-72
2021/10/08 08:57:09;;;;;;;69.22;28.88;;;;;;;9.65;100.00;103122.31;5222356;28;20029;-73
2021/10/08 08:59:57;;;;;;;103.93;27.50;;;;;;;9.78;100.00;103115.13;5222260;28;20099;-72
2021/10/08 09:02:29;;;;;;;84.78;26.83;;;;;;;9.86;100.00;103118.13;5211185;28;20017;-72
2021/10/08 09:05:01;;;;;;;66.00;30.80;;;;;;;9.94;100.00;103120.28;5220731;28;20254;-72
2021/10/08 09:07:33;;;;;;;108.28;26.60;;;;;;;9.95;100.00;103112.16;5229721;28;20531;-72
2021/10/08 09:10:11;;;;;;;77.45;29.08;;;;;;;10.09;100.00;103120.09;5222210;28;20017;-71
2021/10/08 09:12:43;;;;;;;86.03;28.10;;;;;;;10.13;100.00;103124.25;5221908;28;20071;-73
2021/10/08 09:15:15;;;;;;;72.00;27.15;;;;;;;10.36;100.00;103121.81;5221987;28;20103;-74
2021/10/08 09:17:46;;;;;;;72.75;28.40;;;;;;;10.36;100.00;103127.16;5221716;28;20017;-73
2021/10/08 09:20:18;;;;;;;77.78;28.98;;;;;;;10.41;100.00;103125.00;5221779;28;20025;-73
2021/10/08 09:22:50;;;;;;;69.68;28.92;;;;;;;10.43;100.00;103116.84;5221731;28;20401;-72
2021/10/08 09:25:33;;;;;;;60.78;27.52;;;;;;;10.50;100.00;103115.47;5222006;28;20047;-73
2021/10/08 09:28:06;;;;;;;63.50;28.60;;;;;;;10.72;100.00;103129.03;5220953;28;20082;-74
2021/10/08 09:30:43;;;;;;;86.65;26.63;;;;;;;10.71;100.00;103115.72;5222230;28;20074;-72
2021/10/08 09:33:16;;;;;;;64.30;25.60;;;;;;;10.77;100.00;103118.81;5221749;28;20087;-73
2021/10/08 09:35:51;;;;;;;63.35;27.08;;;;;;;10.82;100.00;103126.53;5220413;28;20087;-73
2021/10/08 09:38:22;;;;;;;58.80;26.50;;;;;;;10.99;100.00;103120.75;5222019;28;20112;-72
2021/10/08 09:41:02;;;;;;;59.85;26.92;;;;;;;11.24;100.00;103114.41;5221365;28;20025;-72
2021/10/08 09:43:33;;;;;;;62.40;28.90;;;;;;;11.38;100.00;103116.06;5221449;28;20043;-73
2021/10/08 09:46:05;;;;;;;76.45;26.85;;;;;;;11.35;100.00;103117.16;5221720;28;20031;-74
2021/10/08 09:48:42;;;;;;;55.25;27.45;;;;;;;11.50;100.00;103112.47;5221684;28;20017;-74
2021/10/08 09:51:16;;;;;;;57.45;27.48;;;;;;;11.48;100.00;103109.00;5220053;28;20230;-73
2021/10/08 09:53:48;;;;;;;52.75;27.65;;;;;;;11.42;100.00;103114.84;5221015;28;20033;-72
2021/10/08 09:56:31;;;;;;;58.22;29.52;;;;;;;11.59;100.00;103125.16;5221636;28;20025;-72
2021/10/08 09:59:04;;;;;;;62.95;30.20;;;;;;;11.79;100.00;103122.78;5220946;28;20033;-73
2021/10/08 10:01:36;;;;;;;75.72;32.22;;;;;;;12.02;100.00;103127.25;5220834;28;20036;-73
2021/10/08 10:04:08;;;;;;;65.05;30.65;;;;;;;12.25;100.00;103119.19;5221545;28;20040;-73
2021/10/08 10:06:39;;;;;;;60.50;28.20;;;;;;;12.58;100.00;103124.56;5221423;28;20029;-72
2021/10/08 10:09:10;;;;;;;61.35;29.40;;;;;;;12.79;100.00;103118.41;5212485;28;20037;-73
2021/10/08 10:11:40;;;;;;;60.42;29.23;;;;;;;12.72;100.00;103119.91;5221421;28;20394;-72
2021/10/08 10:14:12;;;;;;;63.75;31.00;;;;;;;12.47;100.00;103113.81;5221299;28;20619;-72
2021/10/08 10:16:43;;;;;;;63.28;31.02;;;;;;;12.21;100.00;103120.44;5220692;28;20025;-73
2021/10/08 10:19:13;;;;;;;65.60;33.33;;;;;;;12.22;100.00;103124.84;5221230;28;20036;-72
2021/10/08 10:21:44;;;;;;;64.88;31.33;;;;;;;12.34;100.00;103121.16;5220298;28;20036;-72
2021/10/08 10:24:16;;;;;;;59.50;30.10;;;;;;;12.41;100.00;103122.41;5220840;28;20069;-72
2021/10/08 10:26:47;;;;;;;63.85;32.13;;;;;;;12.49;100.00;103117.22;5220845;28;20033;-72
2021/10/08 10:29:18;;;;;;;61.70;31.40;;;;;;;12.65;100.00;103119.53;5220455;28;20055;-72
2021/10/08 10:31:50;;;;;;;61.63;29.13;;;;;;;12.96;100.00;103128.69;5219686;28;20036;-72
2021/10/08 10:34:20;;;;;;;61.00;29.35;;;;;;;13.26;100.00;103121.75;5219901;28;20013;-73
2021/10/08 10:36:51;;;;;;;56.97;28.40;;;;;;;13.39;100.00;103120.59;5220258;28;20040;-72
2021/10/08 10:39:21;;;;;;;55.20;27.42;;;;;;;13.53;100.00;103115.88;5219982;28;20159;-73
2021/10/08 10:41:56;;;;;;;51.00;27.52;;;;;;;13.70;100.00;103109.88;5220323;28;20136;-73
2021/10/08 10:44:31;;;;;;;63.90;27.37;;;;;;;13.74;100.00;103111.31;5219102;28;20468;-72
2021/10/08 10:47:23;;;;;;;45.65;26.15;;;;;;;14.11;100.00;103111.69;5219740;28;20279;-72
2021/10/08 10:50:12;;;;;;;54.20;29.42;;;;;;;14.25;100.00;103113.16;5220524;28;20055;-72
2021/10/08 10:52:49;;;;;;;50.95;27.58;;;;;;;14.48;100.00;103105.75;5209225;28;20051;-72
2021/10/08 10:55:21;;;;;;;49.17;27.05;;;;;;;14.45;100.00;103108.69;5219291;28;20115;-73
2021/10/08 10:57:56;;;;;;;45.22;25.58;;;;;;;14.50;100.00;103099.22;5220216;28;20069;-73
2021/10/08 11:00:37;;;;;;;44.83;25.33;;;;;;;14.53;100.00;103100.81;5219521;28;20017;-73
2021/10/08 11:03:14;;;;;;;43.63;23.60;;;;;;;14.55;100.00;103090.69;5219538;28;20036;-73
2021/10/08 11:06:06;;;;;;;42.85;24.48;;;;;;;14.80;100.00;103083.94;5219320;28;20044;-73
2021/10/08 11:09:04;;;;;;;43.40;23.55;;;;;;;14.92;100.00;103080.13;5219455;28;20025;-72
2021/10/08 11:11:34;;;;;;;48.63;25.08;;;;;;;14.88;100.00;103092.22;5219015;28;20450;-73
2021/10/08 11:14:19;;;;;;;43.65;24.08;;;;;;;15.01;100.00;103081.13;5218911;28;20158;-72
2021/10/08 11:16:49;;;;;;;44.67;23.80;;;;;;;15.34;100.00;103076.28;5221718;28;20025;-72
2021/10/08 11:19:40;;;;;;;48.85;25.33;;;;;;;15.52;100.00;103074.56;5219075;28;20040;-72
2021/10/08 11:22:11;;;;;;;49.42;25.30;;;;;;;15.62;100.00;103071.84;5218473;28;20021;-72
2021/10/08 11:24:41;;;;;;;48.33;25.55;;;;;;;15.73;100.00;103075.25;5218586;28;20029;-72
2021/10/08 11:27:13;;;;;;;52.63;23.88;;;;;;;15.95;100.00;103073.19;5218940;28;20060;-72